sensor_id;sensor_type;location;lat;lon;timestamp;P1;P2;P0
56688;PMS5003;42565;53.342;-1.534;2024-02-26T00:02:22;14;14;
56688;PMS5003;42565;53.342;-1.534;2024-02-26T00:04:50;15;15;
56688;PMS5003;42565;53.342;-1.534;2024-02-26T00:07:17;13;13;
56688;PMS5003;42565;53.342;-1.534;2024-02-26T00:09:44;13;12;
56688;PMS5003;42565;53.342;-1.534;2024-02-26T00:12:11;15;15;
56688;PMS5003;42565;53.342;-1.534;2024-02-26T00:14:38;14;14;
56688;PMS5003;42565;53.342;-1.534;2024-02-26T00:17:06;14;13;
56688;PMS5003;42565;53.342;-1.534;2024-02-26T00:19:34;15;15;
56688;PMS5003;42565;53.342;-1.534;2024-02-26T00:22:01;12;12;
56688;PMS5003;42565;53.342;-1.534;2024-02-26T00:24:28;16;15;
56688;PMS5003;42565;53.342;-1.534;2024-02-26T00:26:55;17;16;
56688;PMS5003;42565;53.342;-1.534;2024-02-26T00:29:22;16;14;
56688;PMS5003;42565;53.342;-1.534;2024-02-26T00:31:49;12;12;
56688;PMS5003;42565;53.342;-1.534;2024-02-26T00:34:16;13;13;
56688;PMS5003;42565;53.342;-1.534;2024-02-26T00:36:43;14;12;
56688;PMS5003;42565;53.342;-1.534;2024-02-26T00:39:11;12;12;
56688;PMS5003;42565;53.342;-1.534;2024-02-26T00:41:38;14;13;
56688;PMS5003;42565;53.342;-1.534;2024-02-26T00:44:06;11;11;
56688;PMS5003;42565;53.342;-1.534;2024-02-26T00:46:33;12;11;
56688;PMS5003;42565;53.342;-1.534;2024-02-26T00:49:00;13;11;
56688;PMS5003;42565;53.342;-1.534;2024-02-26T00:51:27;14;13;
56688;PMS5003;42565;53.342;-1.534;2024-02-26T00:53:54;12;12;
56688;PMS5003;42565;53.342;-1.534;2024-02-26T00:56:21;11;11;
56688;PMS5003;42565;53.342;-1.534;2024-02-26T00:58:48;13;11;
56688;PMS5003;42565;53.342;-1.534;2024-02-26T01:01:14;11;10;
56688;PMS5003;42565;53.342;-1.534;2024-02-26T01:03:41;11;9;
56688;PMS5003;42565;53.342;-1.534;2024-02-26T01:06:09;13;11;
56688;PMS5003;42565;53.342;-1.534;2024-02-26T01:08:36;11;10;
56688;PMS5003;42565;53.342;-1.534;2024-02-26T01:11:04;12;11;
56688;PMS5003;42565;53.342;-1.534;2024-02-26T01:13:31;10;9;
56688;PMS5003;42565;53.342;-1.534;2024-02-26T01:15:57;9;8;
56688;PMS5003;42565;53.342;-1.534;2024-02-26T01:18:24;10;9;
56688;PMS5003;42565;53.342;-1.534;2024-02-26T01:20:51;9;8;
56688;PMS5003;42565;53.342;-1.534;2024-02-26T01:23:18;10;8;
56688;PMS5003;42565;53.342;-1.534;2024-02-26T01:25:44;9;9;
56688;PMS5003;42565;53.342;-1.534;2024-02-26T01:28:11;8;7;
56688;PMS5003;42565;53.342;-1.534;2024-02-26T01:30:38;9;8;
56688;PMS5003;42565;53.342;-1.534;2024-02-26T01:33:06;9;9;
56688;PMS5003;42565;53.342;-1.534;2024-02-26T01:35:33;8;7;
56688;PMS5003;42565;53.342;-1.534;2024-02-26T01:38:00;8;7;
56688;PMS5003;42565;53.342;-1.534;2024-02-26T01:40:27;9;8;
56688;PMS5003;42565;53.342;-1.534;2024-02-26T01:42:54;8;7;
56688;PMS5003;42565;53.342;-1.534;2024-02-26T01:45:21;9;8;
56688;PMS5003;42565;53.342;-1.534;2024-02-26T01:47:49;7;6;
56688;PMS5003;42565;53.342;-1.534;2024-02-26T01:50:18;8;7;
56688;PMS5003;42565;53.342;-1.534;2024-02-26T01:52:45;7;7;
56688;PMS5003;42565;53.342;-1.534;2024-02-26T01:55:14;9;7;
56688;PMS5003;42565;53.342;-1.534;2024-02-26T01:57:42;7;6;
56688;PMS5003;42565;53.342;-1.534;2024-02-26T02:00:10;8;8;
56688;PMS5003;42565;53.342;-1.534;2024-02-26T02:02:39;6;6;
56688;PMS5003;42565;53.342;-1.534;2024-02-26T02:05:07;8;7;
56688;PMS5003;42565;53.342;-1.534;2024-02-26T02:07:36;7;7;
56688;PMS5003;42565;53.342;-1.534;2024-02-26T02:10:05;8;7;
56688;PMS5003;42565;53.342;-1.534;2024-02-26T02:12:33;8;7;
56688;PMS5003;42565;53.342;-1.534;2024-02-26T02:15:00;7;7;
56688;PMS5003;42565;53.342;-1.534;2024-02-26T02:17:27;5;4;
56688;PMS5003;42565;53.342;-1.534;2024-02-26T02:19:54;5;5;
56688;PMS5003;42565;53.342;-1.534;2024-02-26T02:22:21;6;5;
56688;PMS5003;42565;53.342;-1.534;2024-02-26T02:24:48;6;6;
56688;PMS5003;42565;53.342;-1.534;2024-02-26T02:27:16;8;8;
56688;PMS5003;42565;53.342;-1.534;2024-02-26T02:29:42;6;6;
56688;PMS5003;42565;53.342;-1.534;2024-02-26T02:32:10;8;6;
56688;PMS5003;42565;53.342;-1.534;2024-02-26T02:34:38;4;4;
56688;PMS5003;42565;53.342;-1.534;2024-02-26T02:37:06;6;6;
56688;PMS5003;42565;53.342;-1.534;2024-02-26T02:39:33;4;4;
56688;PMS5003;42565;53.342;-1.534;2024-02-26T02:42:00;7;6;
56688;PMS5003;42565;53.342;-1.534;2024-02-26T02:44:27;6;4;
56688;PMS5003;42565;53.342;-1.534;2024-02-26T02:46:53;4;4;
56688;PMS5003;42565;53.342;-1.534;2024-02-26T02:49:20;4;4;
56688;PMS5003;42565;53.342;-1.534;2024-02-26T02:51:47;5;5;
56688;PMS5003;42565;53.342;-1.534;2024-02-26T02:54:14;5;4;
56688;PMS5003;42565;53.342;-1.534;2024-02-26T02:56:41;5;5;
56688;PMS5003;42565;53.342;-1.534;2024-02-26T02:59:08;3;3;
56688;PMS5003;42565;53.342;-1.534;2024-02-26T03:01:35;5;5;
56688;PMS5003;42565;53.342;-1.534;2024-02-26T03:04:02;5;5;
56688;PMS5003;42565;53.342;-1.534;2024-02-26T03:06:29;7;7;
56688;PMS5003;42565;53.342;-1.534;2024-02-26T03:08:56;5;3;
56688;PMS5003;42565;53.342;-1.534;2024-02-26T03:11:23;5;5;
56688;PMS5003;42565;53.342;-1.534;2024-02-26T03:13:50;5;4;
56688;PMS5003;42565;53.342;-1.534;2024-02-26T03:16:17;6;6;
56688;PMS5003;42565;53.342;-1.534;2024-02-26T03:18:44;6;5;
56688;PMS5003;42565;53.342;-1.534;2024-02-26T03:21:11;6;5;
56688;PMS5003;42565;53.342;-1.534;2024-02-26T03:23:39;5;4;
56688;PMS5003;42565;53.342;-1.534;2024-02-26T03:26:06;5;5;
56688;PMS5003;42565;53.342;-1.534;2024-02-26T03:28:33;4;4;
56688;PMS5003;42565;53.342;-1.534;2024-02-26T03:31:00;4;4;
56688;PMS5003;42565;53.342;-1.534;2024-02-26T03:33:27;6;5;
56688;PMS5003;42565;53.342;-1.534;2024-02-26T03:35:54;7;6;
56688;PMS5003;42565;53.342;-1.534;2024-02-26T03:38:21;5;3;
56688;PMS5003;42565;53.342;-1.534;2024-02-26T03:40:48;4;4;
56688;PMS5003;42565;53.342;-1.534;2024-02-26T03:43:16;5;4;
56688;PMS5003;42565;53.342;-1.534;2024-02-26T03:45:44;5;4;
56688;PMS5003;42565;53.342;-1.534;2024-02-26T03:48:10;4;4;
56688;PMS5003;42565;53.342;-1.534;2024-02-26T03:50:38;5;4;
56688;PMS5003;42565;53.342;-1.534;2024-02-26T03:53:06;5;3;
56688;PMS5003;42565;53.342;-1.534;2024-02-26T03:55:33;5;4;
56688;PMS5003;42565;53.342;-1.534;2024-02-26T03:57:59;6;5;
56688;PMS5003;42565;53.342;-1.534;2024-02-26T04:00:26;4;3;
56688;PMS5003;42565;53.342;-1.534;2024-02-26T04:02:53;6;4;
56688;PMS5003;42565;53.342;-1.534;2024-02-26T04:05:20;3;3;
56688;PMS5003;42565;53.342;-1.534;2024-02-26T04:07:46;3;3;
56688;PMS5003;42565;53.342;-1.534;2024-02-26T04:10:13;5;4;
56688;PMS5003;42565;53.342;-1.534;2024-02-26T04:12:40;2;2;
56688;PMS5003;42565;53.342;-1.534;2024-02-26T04:15:09;4;4;
56688;PMS5003;42565;53.342;-1.534;2024-02-26T04:17:37;4;4;
56688;PMS5003;42565;53.342;-1.534;2024-02-26T04:20:07;3;3;
56688;PMS5003;42565;53.342;-1.534;2024-02-26T04:22:40;5;4;
56688;PMS5003;42565;53.342;-1.534;2024-02-26T04:25:07;5;5;
56688;PMS5003;42565;53.342;-1.534;2024-02-26T04:27:35;4;3;
56688;PMS5003;42565;53.342;-1.534;2024-02-26T04:30:03;4;4;
56688;PMS5003;42565;53.342;-1.534;2024-02-26T04:32:31;4;4;
56688;PMS5003;42565;53.342;-1.534;2024-02-26T04:34:58;5;4;
56688;PMS5003;42565;53.342;-1.534;2024-02-26T04:37:24;3;3;
56688;PMS5003;42565;53.342;-1.534;2024-02-26T04:39:51;3;3;
56688;PMS5003;42565;53.342;-1.534;2024-02-26T04:42:18;5;4;
56688;PMS5003;42565;53.342;-1.534;2024-02-26T04:44:45;6;4;
56688;PMS5003;42565;53.342;-1.534;2024-02-26T04:47:12;4;4;
56688;PMS5003;42565;53.342;-1.534;2024-02-26T04:49:39;3;3;
56688;PMS5003;42565;53.342;-1.534;2024-02-26T04:52:06;4;3;
56688;PMS5003;42565;53.342;-1.534;2024-02-26T04:54:33;5;5;
56688;PMS5003;42565;53.342;-1.534;2024-02-26T04:57:00;4;4;
56688;PMS5003;42565;53.342;-1.534;2024-02-26T04:59:26;3;2;
56688;PMS5003;42565;53.342;-1.534;2024-02-26T05:01:53;3;3;
56688;PMS5003;42565;53.342;-1.534;2024-02-26T05:04:20;4;4;
56688;PMS5003;42565;53.342;-1.534;2024-02-26T05:06:47;5;4;
56688;PMS5003;42565;53.342;-1.534;2024-02-26T05:09:14;6;5;
56688;PMS5003;42565;53.342;-1.534;2024-02-26T05:11:41;6;5;
56688;PMS5003;42565;53.342;-1.534;2024-02-26T05:14:08;4;3;
56688;PMS5003;42565;53.342;-1.534;2024-02-26T05:16:36;7;5;
56688;PMS5003;42565;53.342;-1.534;2024-02-26T05:19:03;7;5;
56688;PMS5003;42565;53.342;-1.534;2024-02-26T05:21:31;8;8;
56688;PMS5003;42565;53.342;-1.534;2024-02-26T05:23:58;5;5;
56688;PMS5003;42565;53.342;-1.534;2024-02-26T05:26:25;5;4;
56688;PMS5003;42565;53.342;-1.534;2024-02-26T05:28:51;6;5;
56688;PMS5003;42565;53.342;-1.534;2024-02-26T05:31:18;3;3;
56688;PMS5003;42565;53.342;-1.534;2024-02-26T05:33:46;5;4;
56688;PMS5003;42565;53.342;-1.534;2024-02-26T05:36:17;4;4;
56688;PMS5003;42565;53.342;-1.534;2024-02-26T05:38:45;7;5;
56688;PMS5003;42565;53.342;-1.534;2024-02-26T05:41:11;5;4;
56688;PMS5003;42565;53.342;-1.534;2024-02-26T05:43:38;6;4;
56688;PMS5003;42565;53.342;-1.534;2024-02-26T05:46:06;5;4;
56688;PMS5003;42565;53.342;-1.534;2024-02-26T05:48:32;4;4;
56688;PMS5003;42565;53.342;-1.534;2024-02-26T05:51:00;4;4;
56688;PMS5003;42565;53.342;-1.534;2024-02-26T05:53:27;4;4;
56688;PMS5003;42565;53.342;-1.534;2024-02-26T05:55:54;6;6;
56688;PMS5003;42565;53.342;-1.534;2024-02-26T05:58:21;8;8;
56688;PMS5003;42565;53.342;-1.534;2024-02-26T06:00:47;9;7;
56688;PMS5003;42565;53.342;-1.534;2024-02-26T06:03:14;8;7;
56688;PMS5003;42565;53.342;-1.534;2024-02-26T06:05:41;8;8;
56688;PMS5003;42565;53.342;-1.534;2024-02-26T06:08:09;10;9;
56688;PMS5003;42565;53.342;-1.534;2024-02-26T06:10:35;7;6;
56688;PMS5003;42565;53.342;-1.534;2024-02-26T06:13:02;6;6;
56688;PMS5003;42565;53.342;-1.534;2024-02-26T06:15:30;6;6;
56688;PMS5003;42565;53.342;-1.534;2024-02-26T06:17:57;5;5;
56688;PMS5003;42565;53.342;-1.534;2024-02-26T06:20:24;7;7;
56688;PMS5003;42565;53.342;-1.534;2024-02-26T06:22:51;8;7;
56688;PMS5003;42565;53.342;-1.534;2024-02-26T06:25:18;7;7;
56688;PMS5003;42565;53.342;-1.534;2024-02-26T06:27:45;6;6;
56688;PMS5003;42565;53.342;-1.534;2024-02-26T06:30:12;6;5;
56688;PMS5003;42565;53.342;-1.534;2024-02-26T06:32:40;5;5;
56688;PMS5003;42565;53.342;-1.534;2024-02-26T06:35:08;9;8;
56688;PMS5003;42565;53.342;-1.534;2024-02-26T06:37:35;6;6;
56688;PMS5003;42565;53.342;-1.534;2024-02-26T06:40:02;6;5;
56688;PMS5003;42565;53.342;-1.534;2024-02-26T06:42:30;5;5;
56688;PMS5003;42565;53.342;-1.534;2024-02-26T06:44:57;5;5;
56688;PMS5003;42565;53.342;-1.534;2024-02-26T06:47:24;4;4;
56688;PMS5003;42565;53.342;-1.534;2024-02-26T06:49:52;5;5;
56688;PMS5003;42565;53.342;-1.534;2024-02-26T06:52:19;4;4;
56688;PMS5003;42565;53.342;-1.534;2024-02-26T06:54:46;5;5;
56688;PMS5003;42565;53.342;-1.534;2024-02-26T06:57:14;8;8;
56688;PMS5003;42565;53.342;-1.534;2024-02-26T06:59:40;9;8;
56688;PMS5003;42565;53.342;-1.534;2024-02-26T07:02:07;11;11;
56688;PMS5003;42565;53.342;-1.534;2024-02-26T07:04:34;13;12;
56688;PMS5003;42565;53.342;-1.534;2024-02-26T07:07:02;13;12;
56688;PMS5003;42565;53.342;-1.534;2024-02-26T07:09:29;14;12;
56688;PMS5003;42565;53.342;-1.534;2024-02-26T07:11:56;15;13;
56688;PMS5003;42565;53.342;-1.534;2024-02-26T07:14:23;17;14;
56688;PMS5003;42565;53.342;-1.534;2024-02-26T07:16:51;14;13;
56688;PMS5003;42565;53.342;-1.534;2024-02-26T07:19:17;14;14;
56688;PMS5003;42565;53.342;-1.534;2024-02-26T07:21:45;14;13;
56688;PMS5003;42565;53.342;-1.534;2024-02-26T07:24:12;15;14;
56688;PMS5003;42565;53.342;-1.534;2024-02-26T07:26:39;15;13;
56688;PMS5003;42565;53.342;-1.534;2024-02-26T07:29:06;12;12;
56688;PMS5003;42565;53.342;-1.534;2024-02-26T07:31:34;12;12;
56688;PMS5003;42565;53.342;-1.534;2024-02-26T07:34:00;11;11;
56688;PMS5003;42565;53.342;-1.534;2024-02-26T07:36:27;11;11;
56688;PMS5003;42565;53.342;-1.534;2024-02-26T07:38:54;12;10;
56688;PMS5003;42565;53.342;-1.534;2024-02-26T07:41:21;8;8;
56688;PMS5003;42565;53.342;-1.534;2024-02-26T07:43:48;8;8;
56688;PMS5003;42565;53.342;-1.534;2024-02-26T07:46:15;9;8;
56688;PMS5003;42565;53.342;-1.534;2024-02-26T07:48:42;8;8;
56688;PMS5003;42565;53.342;-1.534;2024-02-26T07:51:09;10;9;
56688;PMS5003;42565;53.342;-1.534;2024-02-26T07:53:38;8;8;
56688;PMS5003;42565;53.342;-1.534;2024-02-26T07:56:06;9;8;
56688;PMS5003;42565;53.342;-1.534;2024-02-26T07:58:33;9;9;
56688;PMS5003;42565;53.342;-1.534;2024-02-26T08:01:01;10;9;
56688;PMS5003;42565;53.342;-1.534;2024-02-26T08:03:29;6;5;
56688;PMS5003;42565;53.342;-1.534;2024-02-26T08:05:55;9;9;
56688;PMS5003;42565;53.342;-1.534;2024-02-26T08:08:22;8;8;
56688;PMS5003;42565;53.342;-1.534;2024-02-26T08:10:49;8;7;
56688;PMS5003;42565;53.342;-1.534;2024-02-26T08:13:16;8;7;
56688;PMS5003;42565;53.342;-1.534;2024-02-26T08:15:42;7;7;
56688;PMS5003;42565;53.342;-1.534;2024-02-26T08:18:09;7;7;
56688;PMS5003;42565;53.342;-1.534;2024-02-26T08:20:37;8;7;
56688;PMS5003;42565;53.342;-1.534;2024-02-26T08:23:04;5;4;
56688;PMS5003;42565;53.342;-1.534;2024-02-26T08:25:31;5;5;
56688;PMS5003;42565;53.342;-1.534;2024-02-26T08:27:58;6;6;
56688;PMS5003;42565;53.342;-1.534;2024-02-26T08:30:24;9;7;
56688;PMS5003;42565;53.342;-1.534;2024-02-26T08:32:51;7;5;
56688;PMS5003;42565;53.342;-1.534;2024-02-26T08:35:19;5;5;
56688;PMS5003;42565;53.342;-1.534;2024-02-26T08:37:47;5;5;
56688;PMS5003;42565;53.342;-1.534;2024-02-26T08:40:14;6;6;
56688;PMS5003;42565;53.342;-1.534;2024-02-26T08:42:42;6;6;
56688;PMS5003;42565;53.342;-1.534;2024-02-26T08:45:09;7;6;
56688;PMS5003;42565;53.342;-1.534;2024-02-26T08:47:36;6;6;
56688;PMS5003;42565;53.342;-1.534;2024-02-26T08:50:04;7;7;
56688;PMS5003;42565;53.342;-1.534;2024-02-26T08:52:32;4;4;
56688;PMS5003;42565;53.342;-1.534;2024-02-26T08:54:59;5;5;
56688;PMS5003;42565;53.342;-1.534;2024-02-26T08:57:26;4;4;
56688;PMS5003;42565;53.342;-1.534;2024-02-26T08:59:52;4;4;
56688;PMS5003;42565;53.342;-1.534;2024-02-26T09:02:19;4;4;
56688;PMS5003;42565;53.342;-1.534;2024-02-26T09:04:46;5;5;
56688;PMS5003;42565;53.342;-1.534;2024-02-26T09:07:13;5;4;
56688;PMS5003;42565;53.342;-1.534;2024-02-26T09:09:40;5;5;
56688;PMS5003;42565;53.342;-1.534;2024-02-26T09:12:07;3;3;
56688;PMS5003;42565;53.342;-1.534;2024-02-26T09:14:35;5;5;
56688;PMS5003;42565;53.342;-1.534;2024-02-26T09:17:02;5;4;
56688;PMS5003;42565;53.342;-1.534;2024-02-26T09:19:29;3;3;
56688;PMS5003;42565;53.342;-1.534;2024-02-26T09:21:56;5;4;
56688;PMS5003;42565;53.342;-1.534;2024-02-26T09:24:23;4;3;
56688;PMS5003;42565;53.342;-1.534;2024-02-26T09:26:50;3;2;
56688;PMS5003;42565;53.342;-1.534;2024-02-26T09:29:17;3;3;
56688;PMS5003;42565;53.342;-1.534;2024-02-26T09:31:44;3;3;
56688;PMS5003;42565;53.342;-1.534;2024-02-26T09:34:10;5;4;
56688;PMS5003;42565;53.342;-1.534;2024-02-26T09:36:37;7;5;
56688;PMS5003;42565;53.342;-1.534;2024-02-26T09:39:04;2;2;
56688;PMS5003;42565;53.342;-1.534;2024-02-26T09:41:31;2;2;
56688;PMS5003;42565;53.342;-1.534;2024-02-26T09:43:57;4;4;
56688;PMS5003;42565;53.342;-1.534;2024-02-26T09:46:25;3;2;
56688;PMS5003;42565;53.342;-1.534;2024-02-26T09:48:52;5;4;
56688;PMS5003;42565;53.342;-1.534;2024-02-26T09:51:19;3;3;
56688;PMS5003;42565;53.342;-1.534;2024-02-26T09:53:49;4;4;
56688;PMS5003;42565;53.342;-1.534;2024-02-26T09:56:18;3;3;
56688;PMS5003;42565;53.342;-1.534;2024-02-26T09:58:46;3;3;
56688;PMS5003;42565;53.342;-1.534;2024-02-26T10:01:15;3;2;
56688;PMS5003;42565;53.342;-1.534;2024-02-26T10:03:44;2;2;
56688;PMS5003;42565;53.342;-1.534;2024-02-26T10:06:21;3;3;
56688;PMS5003;42565;53.342;-1.534;2024-02-26T10:08:47;3;2;
56688;PMS5003;42565;53.342;-1.534;2024-02-26T10:11:15;2;1;
56688;PMS5003;42565;53.342;-1.534;2024-02-26T10:13:43;1;1;
56688;PMS5003;42565;53.342;-1.534;2024-02-26T10:16:09;2;2;
56688;PMS5003;42565;53.342;-1.534;2024-02-26T10:18:52;2;2;
56688;PMS5003;42565;53.342;-1.534;2024-02-26T10:21:20;2;1;
56688;PMS5003;42565;53.342;-1.534;2024-02-26T10:23:47;2;1;
56688;PMS5003;42565;53.342;-1.534;2024-02-26T10:26:16;3;3;
56688;PMS5003;42565;53.342;-1.534;2024-02-26T10:28:43;2;1;
56688;PMS5003;42565;53.342;-1.534;2024-02-26T10:31:13;0;0;
56688;PMS5003;42565;53.342;-1.534;2024-02-26T10:33:40;1;1;
56688;PMS5003;42565;53.342;-1.534;2024-02-26T10:36:08;3;1;
56688;PMS5003;42565;53.342;-1.534;2024-02-26T10:38:36;1;1;
56688;PMS5003;42565;53.342;-1.534;2024-02-26T10:41:04;1;1;
56688;PMS5003;42565;53.342;-1.534;2024-02-26T10:43:32;1;1;
56688;PMS5003;42565;53.342;-1.534;2024-02-26T10:45:59;1;1;
56688;PMS5003;42565;53.342;-1.534;2024-02-26T10:48:25;2;1;
56688;PMS5003;42565;53.342;-1.534;2024-02-26T10:50:53;1;1;
56688;PMS5003;42565;53.342;-1.534;2024-02-26T10:53:21;2;2;
56688;PMS5003;42565;53.342;-1.534;2024-02-26T10:55:52;3;3;
56688;PMS5003;42565;53.342;-1.534;2024-02-26T10:58:28;1;1;
56688;PMS5003;42565;53.342;-1.534;2024-02-26T11:00:56;2;0;
56688;PMS5003;42565;53.342;-1.534;2024-02-26T11:03:23;2;2;
56688;PMS5003;42565;53.342;-1.534;2024-02-26T11:05:51;3;2;
56688;PMS5003;42565;53.342;-1.534;2024-02-26T11:08:19;4;2;
56688;PMS5003;42565;53.342;-1.534;2024-02-26T11:10:47;1;1;
56688;PMS5003;42565;53.342;-1.534;2024-02-26T11:13:17;3;2;
56688;PMS5003;42565;53.342;-1.534;2024-02-26T11:15:46;1;1;
56688;PMS5003;42565;53.342;-1.534;2024-02-26T11:18:13;1;1;
56688;PMS5003;42565;53.342;-1.534;2024-02-26T11:20:41;1;1;
56688;PMS5003;42565;53.342;-1.534;2024-02-26T11:23:10;1;0;
56688;PMS5003;42565;53.342;-1.534;2024-02-26T11:25:37;1;1;
56688;PMS5003;42565;53.342;-1.534;2024-02-26T11:28:05;2;2;
56688;PMS5003;42565;53.342;-1.534;2024-02-26T11:30:36;4;3;
56688;PMS5003;42565;53.342;-1.534;2024-02-26T11:33:08;2;2;
56688;PMS5003;42565;53.342;-1.534;2024-02-26T11:35:36;2;2;
56688;PMS5003;42565;53.342;-1.534;2024-02-26T11:38:04;2;2;
56688;PMS5003;42565;53.342;-1.534;2024-02-26T11:40:32;2;1;
56688;PMS5003;42565;53.342;-1.534;2024-02-26T11:43:00;3;3;
56688;PMS5003;42565;53.342;-1.534;2024-02-26T11:45:47;3;2;
56688;PMS5003;42565;53.342;-1.534;2024-02-26T11:48:15;5;3;
56688;PMS5003;42565;53.342;-1.534;2024-02-26T11:50:47;3;2;
56688;PMS5003;42565;53.342;-1.534;2024-02-26T11:53:23;2;2;
56688;PMS5003;42565;53.342;-1.534;2024-02-26T11:56:26;1;1;
56688;PMS5003;42565;53.342;-1.534;2024-02-26T11:58:53;2;1;
56688;PMS5003;42565;53.342;-1.534;2024-02-26T12:01:41;2;1;
56688;PMS5003;42565;53.342;-1.534;2024-02-26T12:04:14;0;0;
56688;PMS5003;42565;53.342;-1.534;2024-02-26T12:06:45;3;3;
56688;PMS5003;42565;53.342;-1.534;2024-02-26T12:09:16;3;2;
56688;PMS5003;42565;53.342;-1.534;2024-02-26T12:11:57;3;3;
56688;PMS5003;42565;53.342;-1.534;2024-02-26T12:14:25;1;1;
56688;PMS5003;42565;53.342;-1.534;2024-02-26T12:16:52;3;2;
56688;PMS5003;42565;53.342;-1.534;2024-02-26T12:19:21;2;2;
56688;PMS5003;42565;53.342;-1.534;2024-02-26T12:21:51;3;2;
56688;PMS5003;42565;53.342;-1.534;2024-02-26T12:24:19;1;1;
56688;PMS5003;42565;53.342;-1.534;2024-02-26T12:26:47;0;0;
56688;PMS5003;42565;53.342;-1.534;2024-02-26T12:29:15;3;3;
56688;PMS5003;42565;53.342;-1.534;2024-02-26T12:31:47;1;1;
56688;PMS5003;42565;53.342;-1.534;2024-02-26T12:34:15;3;1;
56688;PMS5003;42565;53.342;-1.534;2024-02-26T12:36:42;0;0;
56688;PMS5003;42565;53.342;-1.534;2024-02-26T12:39:09;1;1;
56688;PMS5003;42565;53.342;-1.534;2024-02-26T12:41:37;1;0;
56688;PMS5003;42565;53.342;-1.534;2024-02-26T12:44:05;1;1;
56688;PMS5003;42565;53.342;-1.534;2024-02-26T12:46:34;1;0;
56688;PMS5003;42565;53.342;-1.534;2024-02-26T12:49:01;0;0;
56688;PMS5003;42565;53.342;-1.534;2024-02-26T12:51:28;1;1;
56688;PMS5003;42565;53.342;-1.534;2024-02-26T12:53:55;2;2;
56688;PMS5003;42565;53.342;-1.534;2024-02-26T12:56:23;1;1;
56688;PMS5003;42565;53.342;-1.534;2024-02-26T12:58:52;1;1;
56688;PMS5003;42565;53.342;-1.534;2024-02-26T13:01:21;1;1;
56688;PMS5003;42565;53.342;-1.534;2024-02-26T13:03:51;1;1;
56688;PMS5003;42565;53.342;-1.534;2024-02-26T13:06:19;1;1;
56688;PMS5003;42565;53.342;-1.534;2024-02-26T13:08:47;1;1;
56688;PMS5003;42565;53.342;-1.534;2024-02-26T13:11:14;2;2;
56688;PMS5003;42565;53.342;-1.534;2024-02-26T13:13:41;1;1;
56688;PMS5003;42565;53.342;-1.534;2024-02-26T13:16:09;1;1;
56688;PMS5003;42565;53.342;-1.534;2024-02-26T13:18:40;1;0;
56688;PMS5003;42565;53.342;-1.534;2024-02-26T13:21:08;1;0;
56688;PMS5003;42565;53.342;-1.534;2024-02-26T13:23:36;1;1;
56688;PMS5003;42565;53.342;-1.534;2024-02-26T13:26:04;1;1;
56688;PMS5003;42565;53.342;-1.534;2024-02-26T13:28:32;2;2;
56688;PMS5003;42565;53.342;-1.534;2024-02-26T13:31:00;1;1;
56688;PMS5003;42565;53.342;-1.534;2024-02-26T13:33:28;0;0;
56688;PMS5003;42565;53.342;-1.534;2024-02-26T13:35:56;0;0;
56688;PMS5003;42565;53.342;-1.534;2024-02-26T13:38:24;1;1;
56688;PMS5003;42565;53.342;-1.534;2024-02-26T13:40:52;1;1;
56688;PMS5003;42565;53.342;-1.534;2024-02-26T13:43:19;0;0;
56688;PMS5003;42565;53.342;-1.534;2024-02-26T13:45:47;0;0;
56688;PMS5003;42565;53.342;-1.534;2024-02-26T13:48:14;0;0;
56688;PMS5003;42565;53.342;-1.534;2024-02-26T13:50:42;1;0;
56688;PMS5003;42565;53.342;-1.534;2024-02-26T13:53:09;0;0;
56688;PMS5003;42565;53.342;-1.534;2024-02-26T13:55:37;1;1;
56688;PMS5003;42565;53.342;-1.534;2024-02-26T13:58:05;1;1;
56688;PMS5003;42565;53.342;-1.534;2024-02-26T14:00:32;2;1;
56688;PMS5003;42565;53.342;-1.534;2024-02-26T14:03:00;1;1;
56688;PMS5003;42565;53.342;-1.534;2024-02-26T14:05:27;1;1;
56688;PMS5003;42565;53.342;-1.534;2024-02-26T14:07:55;0;0;
56688;PMS5003;42565;53.342;-1.534;2024-02-26T14:10:22;1;0;
56688;PMS5003;42565;53.342;-1.534;2024-02-26T14:12:50;0;0;
56688;PMS5003;42565;53.342;-1.534;2024-02-26T14:15:17;2;1;
56688;PMS5003;42565;53.342;-1.534;2024-02-26T14:17:45;0;0;
56688;PMS5003;42565;53.342;-1.534;2024-02-26T14:20:11;0;0;
56688;PMS5003;42565;53.342;-1.534;2024-02-26T14:22:38;1;0;
56688;PMS5003;42565;53.342;-1.534;2024-02-26T14:25:06;2;1;
56688;PMS5003;42565;53.342;-1.534;2024-02-26T14:27:33;1;1;
56688;PMS5003;42565;53.342;-1.534;2024-02-26T14:30:00;1;1;
56688;PMS5003;42565;53.342;-1.534;2024-02-26T14:32:27;0;0;
56688;PMS5003;42565;53.342;-1.534;2024-02-26T14:34:55;1;1;
56688;PMS5003;42565;53.342;-1.534;2024-02-26T14:37:23;0;0;
56688;PMS5003;42565;53.342;-1.534;2024-02-26T14:39:49;0;0;
56688;PMS5003;42565;53.342;-1.534;2024-02-26T14:42:16;0;0;
56688;PMS5003;42565;53.342;-1.534;2024-02-26T14:44:43;0;0;
56688;PMS5003;42565;53.342;-1.534;2024-02-26T14:47:10;0;0;
56688;PMS5003;42565;53.342;-1.534;2024-02-26T14:49:37;0;0;
56688;PMS5003;42565;53.342;-1.534;2024-02-26T14:52:05;0;0;
56688;PMS5003;42565;53.342;-1.534;2024-02-26T14:54:32;0;0;
56688;PMS5003;42565;53.342;-1.534;2024-02-26T14:57:00;1;1;
56688;PMS5003;42565;53.342;-1.534;2024-02-26T14:59:26;0;0;
56688;PMS5003;42565;53.342;-1.534;2024-02-26T15:01:53;1;1;
56688;PMS5003;42565;53.342;-1.534;2024-02-26T15:04:20;2;2;
56688;PMS5003;42565;53.342;-1.534;2024-02-26T15:06:47;1;1;
56688;PMS5003;42565;53.342;-1.534;2024-02-26T15:09:13;1;1;
56688;PMS5003;42565;53.342;-1.534;2024-02-26T15:11:40;1;1;
56688;PMS5003;42565;53.342;-1.534;2024-02-26T15:14:07;2;2;
56688;PMS5003;42565;53.342;-1.534;2024-02-26T15:16:36;2;2;
56688;PMS5003;42565;53.342;-1.534;2024-02-26T15:19:04;4;4;
56688;PMS5003;42565;53.342;-1.534;2024-02-26T15:21:30;5;3;
56688;PMS5003;42565;53.342;-1.534;2024-02-26T15:23:57;2;1;
56688;PMS5003;42565;53.342;-1.534;2024-02-26T15:26:24;2;2;
56688;PMS5003;42565;53.342;-1.534;2024-02-26T15:28:50;3;3;
56688;PMS5003;42565;53.342;-1.534;2024-02-26T15:31:19;2;2;
56688;PMS5003;42565;53.342;-1.534;2024-02-26T15:33:46;2;1;
56688;PMS5003;42565;53.342;-1.534;2024-02-26T15:36:12;0;0;
56688;PMS5003;42565;53.342;-1.534;2024-02-26T15:38:39;1;0;
56688;PMS5003;42565;53.342;-1.534;2024-02-26T15:41:10;2;2;
56688;PMS5003;42565;53.342;-1.534;2024-02-26T15:43:38;2;2;
56688;PMS5003;42565;53.342;-1.534;2024-02-26T15:46:05;2;1;
56688;PMS5003;42565;53.342;-1.534;2024-02-26T15:48:33;2;2;
56688;PMS5003;42565;53.342;-1.534;2024-02-26T15:51:02;1;1;
56688;PMS5003;42565;53.342;-1.534;2024-02-26T15:53:30;3;2;
56688;PMS5003;42565;53.342;-1.534;2024-02-26T15:55:57;3;2;
56688;PMS5003;42565;53.342;-1.534;2024-02-26T15:58:25;3;2;
56688;PMS5003;42565;53.342;-1.534;2024-02-26T16:00:52;3;2;
56688;PMS5003;42565;53.342;-1.534;2024-02-26T16:03:18;1;1;
56688;PMS5003;42565;53.342;-1.534;2024-02-26T16:05:46;2;2;
56688;PMS5003;42565;53.342;-1.534;2024-02-26T16:08:14;4;2;
56688;PMS5003;42565;53.342;-1.534;2024-02-26T16:10:45;2;2;
56688;PMS5003;42565;53.342;-1.534;2024-02-26T16:13:13;1;1;
56688;PMS5003;42565;53.342;-1.534;2024-02-26T16:15:42;1;1;
56688;PMS5003;42565;53.342;-1.534;2024-02-26T16:18:13;0;0;
56688;PMS5003;42565;53.342;-1.534;2024-02-26T16:20:41;1;1;
56688;PMS5003;42565;53.342;-1.534;2024-02-26T16:23:08;2;2;
56688;PMS5003;42565;53.342;-1.534;2024-02-26T16:25:35;1;1;
56688;PMS5003;42565;53.342;-1.534;2024-02-26T16:28:02;2;2;
56688;PMS5003;42565;53.342;-1.534;2024-02-26T16:30:29;2;2;
56688;PMS5003;42565;53.342;-1.534;2024-02-26T16:32:56;2;2;
56688;PMS5003;42565;53.342;-1.534;2024-02-26T16:35:23;2;2;